Rhinelander, WI (54501)

4:25 AM CDT on March 24, 2017 (GMT -0500)
| | Change Station
Active Advisory: Winter Weather Advisory

Elev -9999 ft 0.00 °N, 0.00 °E | Updated

Light Rain
Light Rain Mist
°F
Feels Like °F
N
Wind Variable Wind from North
Gusts mph

Today
High -- | Low -- °F
--% Chance of Precip.
Yesterday
High -- | Low -- °F
Precip. -- in
Pressure 29.87 in
Visibility 5.0 miles
Clouds Overcast 900 ft
Dew Point Not available.
Humidity Not available.
Rainfall --
Snow Depth Not available.
6:52 AM 7:15 PM
Waning Crescent, 16% visible
SPECI KRHI 240909Z AUTO 00000KT 5SM -RA BR OVC009 01/00 A2987 RMK AO2 P0000 T00060000 TSNO
Pressure 29.87 in
Visibility 5.0 miles
Clouds Overcast 900 ft
Dew Point Not available.
Humidity Not available.
Rainfall --
Snow Depth Not available.
6:52 AM 7:15 PM
Waning Crescent, 16% visible
SPECI KRHI 240909Z AUTO 00000KT 5SM -RA BR OVC009 01/00 A2987 RMK AO2 P0000 T00060000 TSNO

Get Your Daily Forecast Email!

Thanks for signing up!

Be on the lookout for a verification email in your inbox.

You'll start receiving severe weather alerts in your inbox..

×

10-Day Weather Forecast

Almanac

Astronomy

Mar. 24, 2017 Rise Set
Actual Time
Civil Twilight
Nautical Twilight
Astronomical Twilight
Moon
Length of Visible Light
Length of Day
Tomorrow will be .
, % of the Moon is Illuminated

Today's Extremes

State Highs State Lows

Community

WunderPhotos

Upload Photos

1,962,540 photos uploaded!

WunderBlog® & News

Nearby

Air Quality

  Air Quality AQ Index Pollutant
Not available.

Snow Depth

Station Depth Elevation

Earthquake Activity

City Distance Mag. Time & Date
Minimum magnitude displayed is 2.5.

Earthquake Activity

City Distance Mag. Time & Date
Minimum magnitude displayed is 2.5.

Coastal Water Temperatures

Place Temperature

Stations

Nearby Weather Stations

Station Location Temp. Windchill Dew Point Humidity Wind Precip. Elev Updated Type
                   

Watches & Warnings

Winter Weather Advisory
Issued: 9:11 PM CDT Mar. 23, 2017 – National Weather Service

... Winter Weather Advisory now in effect until 9 am CDT Friday...

* timing... freezing rain will be possible through early Friday
morning, especially over far northern Wisconsin.

* Ice accumulation... ice accumulations of one-tenth to two-tenths
of an inch are expected on outdoor surfaces, especially along
and north of Highway 8, which runs from Rhinelander to Crandon
to Pembine. Generally less than 1/10 of an inch of ice is
expected farther south.

* Impacts... the ice will result in difficult travel conditions on
untreated roads, including during the morning commute on Friday.

Precautionary/preparedness actions...

A Winter Weather Advisory means that periods of freezing rain
will cause travel difficulties. Be prepared for slippery roads...
and use caution while driving. The latest Wisconsin Road
conditions can be obtained by calling 511.


Kieckbusch